sensor_id;sensor_type;location;lat;lon;timestamp;temperature;humidity
1592;DHT22;789;51.612;7.510;2023-03-01T00:01:04;2.40;1.00
1592;DHT22;789;51.612;7.510;2023-03-01T00:03:31;2.30;1.00
1592;DHT22;789;51.612;7.510;2023-03-01T00:05:58;2.30;1.00
1592;DHT22;789;51.612;7.510;2023-03-01T00:08:25;2.30;1.00
1592;DHT22;789;51.612;7.510;2023-03-01T00:11:00;2.30;1.00
1592;DHT22;789;51.612;7.510;2023-03-01T00:13:29;2.30;1.00
1592;DHT22;789;51.612;7.510;2023-03-01T00:15:56;2.30;1.00
1592;DHT22;789;51.612;7.510;2023-03-01T00:18:23;2.40;1.00
1592;DHT22;789;51.612;7.510;2023-03-01T00:20:50;2.40;1.00
1592;DHT22;789;51.612;7.510;2023-03-01T00:23:17;2.40;1.00
1592;DHT22;789;51.612;7.510;2023-03-01T00:25:44;2.40;1.00
1592;DHT22;789;51.612;7.510;2023-03-01T00:28:11;2.40;1.00
1592;DHT22;789;51.612;7.510;2023-03-01T00:30:39;2.40;1.00
1592;DHT22;789;51.612;7.510;2023-03-01T00:33:05;2.30;1.00
1592;DHT22;789;51.612;7.510;2023-03-01T00:35:32;2.30;1.00
1592;DHT22;789;51.612;7.510;2023-03-01T00:37:59;2.20;1.00
1592;DHT22;789;51.612;7.510;2023-03-01T00:40:27;2.20;1.00
1592;DHT22;789;51.612;7.510;2023-03-01T00:42:54;2.20;1.00
1592;DHT22;789;51.612;7.510;2023-03-01T00:45:21;2.20;1.00
1592;DHT22;789;51.612;7.510;2023-03-01T00:47:49;2.20;1.00
1592;DHT22;789;51.612;7.510;2023-03-01T00:50:17;2.20;1.00
1592;DHT22;789;51.612;7.510;2023-03-01T00:52:44;2.20;1.00
1592;DHT22;789;51.612;7.510;2023-03-01T00:55:11;2.20;1.00
1592;DHT22;789;51.612;7.510;2023-03-01T00:57:38;2.10;1.00
1592;DHT22;789;51.612;7.510;2023-03-01T01:00:06;2.10;1.00
1592;DHT22;789;51.612;7.510;2023-03-01T01:02:35;2.10;1.00
1592;DHT22;789;51.612;7.510;2023-03-01T01:05:03;2.10;1.00
1592;DHT22;789;51.612;7.510;2023-03-01T01:07:30;2.10;1.00
1592;DHT22;789;51.612;7.510;2023-03-01T01:09:57;2.00;1.00
1592;DHT22;789;51.612;7.510;2023-03-01T01:12:24;2.10;1.00
1592;DHT22;789;51.612;7.510;2023-03-01T01:14:50;2.00;1.00
1592;DHT22;789;51.612;7.510;2023-03-01T01:17:17;2.00;1.00
1592;DHT22;789;51.612;7.510;2023-03-01T01:19:44;2.00;1.00
1592;DHT22;789;51.612;7.510;2023-03-01T01:22:12;2.00;1.00
1592;DHT22;789;51.612;7.510;2023-03-01T01:24:39;2.00;1.00
1592;DHT22;789;51.612;7.510;2023-03-01T01:27:05;2.00;1.00
1592;DHT22;789;51.612;7.510;2023-03-01T01:29:32;2.00;1.00
1592;DHT22;789;51.612;7.510;2023-03-01T01:31:59;2.00;1.00
1592;DHT22;789;51.612;7.510;2023-03-01T01:34:26;2.00;1.00
1592;DHT22;789;51.612;7.510;2023-03-01T01:36:53;1.90;1.00
1592;DHT22;789;51.612;7.510;2023-03-01T01:39:22;1.90;1.00
1592;DHT22;789;51.612;7.510;2023-03-01T01:41:49;1.90;1.00
1592;DHT22;789;51.612;7.510;2023-03-01T01:44:19;1.90;1.00
1592;DHT22;789;51.612;7.510;2023-03-01T01:46:50;1.90;1.00
1592;DHT22;789;51.612;7.510;2023-03-01T01:49:24;1.90;1.00
1592;DHT22;789;51.612;7.510;2023-03-01T01:51:58;1.80;1.00
1592;DHT22;789;51.612;7.510;2023-03-01T01:54:32;1.80;1.00
1592;DHT22;789;51.612;7.510;2023-03-01T01:57:05;1.80;1.00
1592;DHT22;789;51.612;7.510;2023-03-01T01:59:34;1.80;1.00
1592;DHT22;789;51.612;7.510;2023-03-01T02:02:02;1.80;1.00
1592;DHT22;789;51.612;7.510;2023-03-01T02:04:29;1.80;1.00
1592;DHT22;789;51.612;7.510;2023-03-01T02:07:01;1.80;1.00
1592;DHT22;789;51.612;7.510;2023-03-01T02:09:31;1.80;1.00
1592;DHT22;789;51.612;7.510;2023-03-01T02:11:58;1.80;1.00
1592;DHT22;789;51.612;7.510;2023-03-01T02:14:25;1.70;1.00
1592;DHT22;789;51.612;7.510;2023-03-01T02:16:52;1.70;1.00
1592;DHT22;789;51.612;7.510;2023-03-01T02:19:28;1.70;1.00
1592;DHT22;789;51.612;7.510;2023-03-01T02:22:03;1.70;1.00
1592;DHT22;789;51.612;7.510;2023-03-01T02:24:40;1.70;1.00
1592;DHT22;789;51.612;7.510;2023-03-01T02:27:09;1.70;1.00
1592;DHT22;789;51.612;7.510;2023-03-01T02:29:38;1.70;1.00
1592;DHT22;789;51.612;7.510;2023-03-01T02:32:05;1.60;1.00
1592;DHT22;789;51.612;7.510;2023-03-01T02:34:32;1.60;1.00
1592;DHT22;789;51.612;7.510;2023-03-01T02:37:02;1.60;1.00
1592;DHT22;789;51.612;7.510;2023-03-01T02:39:33;1.60;1.00
1592;DHT22;789;51.612;7.510;2023-03-01T02:42:02;1.60;1.00
1592;DHT22;789;51.612;7.510;2023-03-01T02:44:30;1.60;1.00
1592;DHT22;789;51.612;7.510;2023-03-01T02:47:01;1.60;1.00
1592;DHT22;789;51.612;7.510;2023-03-01T02:49:31;1.60;1.00
1592;DHT22;789;51.612;7.510;2023-03-01T02:52:10;1.50;1.00
1592;DHT22;789;51.612;7.510;2023-03-01T02:54:41;1.50;1.00
1592;DHT22;789;51.612;7.510;2023-03-01T02:57:11;1.50;1.00
1592;DHT22;789;51.612;7.510;2023-03-01T02:59:39;1.50;1.00
1592;DHT22;789;51.612;7.510;2023-03-01T03:02:18;1.50;1.00
1592;DHT22;789;51.612;7.510;2023-03-01T03:04:47;1.50;1.00
1592;DHT22;789;51.612;7.510;2023-03-01T03:07:14;1.40;1.00
1592;DHT22;789;51.612;7.510;2023-03-01T03:09:41;1.40;1.00
1592;DHT22;789;51.612;7.510;2023-03-01T03:12:07;1.40;1.00
1592;DHT22;789;51.612;7.510;2023-03-01T03:14:34;1.40;1.00
1592;DHT22;789;51.612;7.510;2023-03-01T03:17:01;1.40;1.00
1592;DHT22;789;51.612;7.510;2023-03-01T03:19:33;1.40;1.00
1592;DHT22;789;51.612;7.510;2023-03-01T03:21:59;1.40;1.00
1592;DHT22;789;51.612;7.510;2023-03-01T03:24:27;1.30;1.00
1592;DHT22;789;51.612;7.510;2023-03-01T03:26:54;1.30;1.00
1592;DHT22;789;51.612;7.510;2023-03-01T03:29:20;1.30;1.00
1592;DHT22;789;51.612;7.510;2023-03-01T03:31:47;1.30;1.00
1592;DHT22;789;51.612;7.510;2023-03-01T03:34:14;1.30;1.00
1592;DHT22;789;51.612;7.510;2023-03-01T03:36:44;1.30;1.00
1592;DHT22;789;51.612;7.510;2023-03-01T03:39:11;1.30;1.00
1592;DHT22;789;51.612;7.510;2023-03-01T03:41:38;1.20;1.00
1592;DHT22;789;51.612;7.510;2023-03-01T03:44:04;1.20;1.00
1592;DHT22;789;51.612;7.510;2023-03-01T03:46:31;1.20;1.00
1592;DHT22;789;51.612;7.510;2023-03-01T03:48:58;1.20;1.00
1592;DHT22;789;51.612;7.510;2023-03-01T03:51:24;1.20;1.00
1592;DHT22;789;51.612;7.510;2023-03-01T03:53:52;1.20;1.00
1592;DHT22;789;51.612;7.510;2023-03-01T03:56:19;1.10;1.00
1592;DHT22;789;51.612;7.510;2023-03-01T03:58:46;1.10;1.00
1592;DHT22;789;51.612;7.510;2023-03-01T04:01:12;1.10;1.00
1592;DHT22;789;51.612;7.510;2023-03-01T04:03:39;1.10;1.00
1592;DHT22;789;51.612;7.510;2023-03-01T04:06:07;1.10;1.00
1592;DHT22;789;51.612;7.510;2023-03-01T04:08:33;1.10;1.00
1592;DHT22;789;51.612;7.510;2023-03-01T04:11:03;1.00;1.00
1592;DHT22;789;51.612;7.510;2023-03-01T04:13:44;1.00;1.00
1592;DHT22;789;51.612;7.510;2023-03-01T04:16:11;0.90;1.00
1592;DHT22;789;51.612;7.510;2023-03-01T04:18:38;0.90;1.00
1592;DHT22;789;51.612;7.510;2023-03-01T04:21:04;0.80;1.00
1592;DHT22;789;51.612;7.510;2023-03-01T04:23:31;0.80;1.00
1592;DHT22;789;51.612;7.510;2023-03-01T04:25:59;0.70;1.00
1592;DHT22;789;51.612;7.510;2023-03-01T04:28:29;0.70;1.00
1592;DHT22;789;51.612;7.510;2023-03-01T04:30:57;0.60;1.00
1592;DHT22;789;51.612;7.510;2023-03-01T04:33:25;0.60;1.00
1592;DHT22;789;51.612;7.510;2023-03-01T04:35:52;0.60;1.00
1592;DHT22;789;51.612;7.510;2023-03-01T04:38:19;0.60;1.00
1592;DHT22;789;51.612;7.510;2023-03-01T04:40:46;0.50;1.00
1592;DHT22;789;51.612;7.510;2023-03-01T04:43:13;0.50;1.00
1592;DHT22;789;51.612;7.510;2023-03-01T04:45:42;0.40;1.00
1592;DHT22;789;51.612;7.510;2023-03-01T04:48:09;0.40;1.00
1592;DHT22;789;51.612;7.510;2023-03-01T04:50:35;0.40;1.00
1592;DHT22;789;51.612;7.510;2023-03-01T04:53:02;0.40;1.00
1592;DHT22;789;51.612;7.510;2023-03-01T04:55:29;0.40;1.00
1592;DHT22;789;51.612;7.510;2023-03-01T04:57:56;0.30;1.00
1592;DHT22;789;51.612;7.510;2023-03-01T05:00:23;0.30;1.00
1592;DHT22;789;51.612;7.510;2023-03-01T05:02:53;0.30;1.00
1592;DHT22;789;51.612;7.510;2023-03-01T05:05:22;0.30;1.00
1592;DHT22;789;51.612;7.510;2023-03-01T05:07:55;0.30;1.00
1592;DHT22;789;51.612;7.510;2023-03-01T05:10:23;0.30;1.00
1592;DHT22;789;51.612;7.510;2023-03-01T05:12:50;0.30;1.00
1592;DHT22;789;51.612;7.510;2023-03-01T05:15:17;0.30;1.00
1592;DHT22;789;51.612;7.510;2023-03-01T05:17:44;0.30;1.00
1592;DHT22;789;51.612;7.510;2023-03-01T05:20:13;0.30;1.00
1592;DHT22;789;51.612;7.510;2023-03-01T05:22:39;0.30;1.00
1592;DHT22;789;51.612;7.510;2023-03-01T05:25:07;0.30;1.00
1592;DHT22;789;51.612;7.510;2023-03-01T05:27:34;0.30;1.00
1592;DHT22;789;51.612;7.510;2023-03-01T05:30:01;0.30;1.00
1592;DHT22;789;51.612;7.510;2023-03-01T05:32:39;0.30;1.00
1592;DHT22;789;51.612;7.510;2023-03-01T05:35:06;0.30;1.00
1592;DHT22;789;51.612;7.510;2023-03-01T05:37:34;0.40;1.00
1592;DHT22;789;51.612;7.510;2023-03-01T05:40:02;0.30;1.00
1592;DHT22;789;51.612;7.510;2023-03-01T05:42:30;0.40;1.00
1592;DHT22;789;51.612;7.510;2023-03-01T05:44:57;0.40;1.00
1592;DHT22;789;51.612;7.510;2023-03-01T05:47:24;0.40;1.00
1592;DHT22;789;51.612;7.510;2023-03-01T05:49:50;0.40;1.00
1592;DHT22;789;51.612;7.510;2023-03-01T05:52:17;0.40;1.00
1592;DHT22;789;51.612;7.510;2023-03-01T05:54:45;0.40;1.00
1592;DHT22;789;51.612;7.510;2023-03-01T05:57:12;0.40;1.00
1592;DHT22;789;51.612;7.510;2023-03-01T05:59:38;0.40;1.00
1592;DHT22;789;51.612;7.510;2023-03-01T06:02:05;0.40;1.00
1592;DHT22;789;51.612;7.510;2023-03-01T06:04:32;0.40;1.00
1592;DHT22;789;51.612;7.510;2023-03-01T06:06:58;0.40;1.00
1592;DHT22;789;51.612;7.510;2023-03-01T06:09:25;0.30;1.00
1592;DHT22;789;51.612;7.510;2023-03-01T06:11:53;0.30;1.00
1592;DHT22;789;51.612;7.510;2023-03-01T06:14:20;0.40;1.00
1592;DHT22;789;51.612;7.510;2023-03-01T06:16:47;0.40;1.00
1592;DHT22;789;51.612;7.510;2023-03-01T06:19:13;0.40;1.00
1592;DHT22;789;51.612;7.510;2023-03-01T06:21:40;0.40;1.00
1592;DHT22;789;51.612;7.510;2023-03-01T06:24:07;0.40;1.00
1592;DHT22;789;51.612;7.510;2023-03-01T06:26:34;0.40;1.00
1592;DHT22;789;51.612;7.510;2023-03-01T06:29:02;0.90;1.00
1592;DHT22;789;51.612;7.510;2023-03-01T06:31:29;0.30;1.00
1592;DHT22;789;51.612;7.510;2023-03-01T06:33:55;0.30;1.00
1592;DHT22;789;51.612;7.510;2023-03-01T06:36:22;0.30;1.00
1592;DHT22;789;51.612;7.510;2023-03-01T06:38:49;0.40;1.00
1592;DHT22;789;51.612;7.510;2023-03-01T06:41:16;0.40;1.00
1592;DHT22;789;51.612;7.510;2023-03-01T06:43:42;0.40;1.00
1592;DHT22;789;51.612;7.510;2023-03-01T06:46:10;0.40;1.00
1592;DHT22;789;51.612;7.510;2023-03-01T06:48:37;0.50;1.00
1592;DHT22;789;51.612;7.510;2023-03-01T06:51:04;0.50;1.00
1592;DHT22;789;51.612;7.510;2023-03-01T06:53:31;0.50;1.00
1592;DHT22;789;51.612;7.510;2023-03-01T06:55:58;0.60;1.00
1592;DHT22;789;51.612;7.510;2023-03-01T06:58:25;0.60;1.00
1592;DHT22;789;51.612;7.510;2023-03-01T07:00:52;0.70;1.00
1592;DHT22;789;51.612;7.510;2023-03-01T07:03:20;0.70;1.00
1592;DHT22;789;51.612;7.510;2023-03-01T07:05:49;0.70;1.00
1592;DHT22;789;51.612;7.510;2023-03-01T07:08:17;0.80;1.00
1592;DHT22;789;51.612;7.510;2023-03-01T07:10:43;0.80;1.00
1592;DHT22;789;51.612;7.510;2023-03-01T07:13:10;0.80;1.00
1592;DHT22;789;51.612;7.510;2023-03-01T07:15:37;0.90;1.00
1592;DHT22;789;51.612;7.510;2023-03-01T07:18:03;0.90;1.00
1592;DHT22;789;51.612;7.510;2023-03-01T07:20:31;1.00;1.00
1592;DHT22;789;51.612;7.510;2023-03-01T07:22:58;1.10;1.00
1592;DHT22;789;51.612;7.510;2023-03-01T07:25:25;1.10;1.00
1592;DHT22;789;51.612;7.510;2023-03-01T07:27:52;1.10;1.00
1592;DHT22;789;51.612;7.510;2023-03-01T07:30:20;1.20;1.00
1592;DHT22;789;51.612;7.510;2023-03-01T07:32:47;1.20;1.00
1592;DHT22;789;51.612;7.510;2023-03-01T07:35:14;1.30;1.00
1592;DHT22;789;51.612;7.510;2023-03-01T07:37:42;1.40;1.00
1592;DHT22;789;51.612;7.510;2023-03-01T07:40:10;1.80;1.00
1592;DHT22;789;51.612;7.510;2023-03-01T07:42:37;2.70;1.00
1592;DHT22;789;51.612;7.510;2023-03-01T07:45:05;4.00;1.00
1592;DHT22;789;51.612;7.510;2023-03-01T07:47:32;5.30;1.00
1592;DHT22;789;51.612;7.510;2023-03-01T07:49:59;6.70;1.00
1592;DHT22;789;51.612;7.510;2023-03-01T07:52:26;8.10;1.00
1592;DHT22;789;51.612;7.510;2023-03-01T07:54:54;9.30;1.00
1592;DHT22;789;51.612;7.510;2023-03-01T07:57:21;10.60;1.00
1592;DHT22;789;51.612;7.510;2023-03-01T07:59:48;11.90;1.00
1592;DHT22;789;51.612;7.510;2023-03-01T08:02:14;12.90;1.00
1592;DHT22;789;51.612;7.510;2023-03-01T08:04:41;13.70;1.00
1592;DHT22;789;51.612;7.510;2023-03-01T08:07:08;14.30;1.00
1592;DHT22;789;51.612;7.510;2023-03-01T08:09:35;14.80;1.00
1592;DHT22;789;51.612;7.510;2023-03-01T08:12:04;15.30;1.00
1592;DHT22;789;51.612;7.510;2023-03-01T08:14:31;15.90;1.00
1592;DHT22;789;51.612;7.510;2023-03-01T08:16:58;16.40;1.00
1592;DHT22;789;51.612;7.510;2023-03-01T08:19:25;17.10;1.00
1592;DHT22;789;51.612;7.510;2023-03-01T08:21:53;17.60;1.00
1592;DHT22;789;51.612;7.510;2023-03-01T08:24:20;18.20;1.00
1592;DHT22;789;51.612;7.510;2023-03-01T08:26:47;18.50;1.00
1592;DHT22;789;51.612;7.510;2023-03-01T08:29:15;18.50;1.00
1592;DHT22;789;51.612;7.510;2023-03-01T08:31:42;18.70;1.00
1592;DHT22;789;51.612;7.510;2023-03-01T08:34:10;19.00;1.00
1592;DHT22;789;51.612;7.510;2023-03-01T08:36:39;19.40;1.00
1592;DHT22;789;51.612;7.510;2023-03-01T08:39:07;19.90;1.00
1592;DHT22;789;51.612;7.510;2023-03-01T08:41:34;20.30;1.00
1592;DHT22;789;51.612;7.510;2023-03-01T08:44:00;20.50;1.00
1592;DHT22;789;51.612;7.510;2023-03-01T08:46:30;20.50;1.00
1592;DHT22;789;51.612;7.510;2023-03-01T08:48:57;20.30;1.00
1592;DHT22;789;51.612;7.510;2023-03-01T08:51:24;20.40;1.00
1592;DHT22;789;51.612;7.510;2023-03-01T08:53:51;20.50;1.00
1592;DHT22;789;51.612;7.510;2023-03-01T08:56:18;20.50;1.00
1592;DHT22;789;51.612;7.510;2023-03-01T08:58:46;20.30;1.00
1592;DHT22;789;51.612;7.510;2023-03-01T09:01:14;20.00;1.00
1592;DHT22;789;51.612;7.510;2023-03-01T09:03:43;20.00;1.00
1592;DHT22;789;51.612;7.510;2023-03-01T09:06:11;20.30;1.00
1592;DHT22;789;51.612;7.510;2023-03-01T09:08:41;20.60;1.00
1592;DHT22;789;51.612;7.510;2023-03-01T09:11:09;21.20;1.00
1592;DHT22;789;51.612;7.510;2023-03-01T09:13:36;21.80;1.00
1592;DHT22;789;51.612;7.510;2023-03-01T09:16:06;22.60;1.00
1592;DHT22;789;51.612;7.510;2023-03-01T09:18:34;23.10;1.00
1592;DHT22;789;51.612;7.510;2023-03-01T09:21:05;23.10;1.00
1592;DHT22;789;51.612;7.510;2023-03-01T09:23:34;23.30;1.00
1592;DHT22;789;51.612;7.510;2023-03-01T09:26:05;23.70;1.00
1592;DHT22;789;51.612;7.510;2023-03-01T09:28:34;23.70;1.00
1592;DHT22;789;51.612;7.510;2023-03-01T09:31:02;23.40;1.00
1592;DHT22;789;51.612;7.510;2023-03-01T09:33:30;23.30;1.00
1592;DHT22;789;51.612;7.510;2023-03-01T09:35:57;23.60;1.00
1592;DHT22;789;51.612;7.510;2023-03-01T09:38:26;23.70;1.00
1592;DHT22;789;51.612;7.510;2023-03-01T09:40:53;23.60;1.00
1592;DHT22;789;51.612;7.510;2023-03-01T09:43:25;23.70;1.00
1592;DHT22;789;51.612;7.510;2023-03-01T09:45:59;23.80;1.00
1592;DHT22;789;51.612;7.510;2023-03-01T09:48:41;24.20;1.00
1592;DHT22;789;51.612;7.510;2023-03-01T09:51:16;24.40;1.00
1592;DHT22;789;51.612;7.510;2023-03-01T09:53:46;24.90;1.00
1592;DHT22;789;51.612;7.510;2023-03-01T09:56:16;25.20;1.00
1592;DHT22;789;51.612;7.510;2023-03-01T09:58:51;25.60;1.00
1592;DHT22;789;51.612;7.510;2023-03-01T10:01:29;25.90;1.00
1592;DHT22;789;51.612;7.510;2023-03-01T10:04:22;26.50;1.00
1592;DHT22;789;51.612;7.510;2023-03-01T10:06:58;25.90;1.00
1592;DHT22;789;51.612;7.510;2023-03-01T10:09:29;25.50;1.00
1592;DHT22;789;51.612;7.510;2023-03-01T10:12:00;25.10;1.00
1592;DHT22;789;51.612;7.510;2023-03-01T10:14:32;23.60;1.00
1592;DHT22;789;51.612;7.510;2023-03-01T10:17:02;22.30;1.00
1592;DHT22;789;51.612;7.510;2023-03-01T10:19:34;21.40;1.00
1592;DHT22;789;51.612;7.510;2023-03-01T10:22:05;20.90;1.00
1592;DHT22;789;51.612;7.510;2023-03-01T10:24:37;21.00;1.00
1592;DHT22;789;51.612;7.510;2023-03-01T10:27:09;21.30;1.00
1592;DHT22;789;51.612;7.510;2023-03-01T10:29:40;21.30;1.00
1592;DHT22;789;51.612;7.510;2023-03-01T10:32:11;21.80;1.00
1592;DHT22;789;51.612;7.510;2023-03-01T10:34:37;22.40;1.00
1592;DHT22;789;51.612;7.510;2023-03-01T10:37:10;22.20;1.00
1592;DHT22;789;51.612;7.510;2023-03-01T10:39:55;21.70;1.00
1592;DHT22;789;51.612;7.510;2023-03-01T10:42:26;21.10;1.00
1592;DHT22;789;51.612;7.510;2023-03-01T10:44:54;20.50;1.00
1592;DHT22;789;51.612;7.510;2023-03-01T10:47:22;20.70;1.00
1592;DHT22;789;51.612;7.510;2023-03-01T10:49:59;20.60;1.00
1592;DHT22;789;51.612;7.510;2023-03-01T10:52:32;20.60;1.00
1592;DHT22;789;51.612;7.510;2023-03-01T10:55:04;20.40;1.00
1592;DHT22;789;51.612;7.510;2023-03-01T10:57:48;20.30;1.00
1592;DHT22;789;51.612;7.510;2023-03-01T11:00:20;20.60;1.00
1592;DHT22;789;51.612;7.510;2023-03-01T11:02:50;20.20;1.00
1592;DHT22;789;51.612;7.510;2023-03-01T11:05:21;20.00;1.00
1592;DHT22;789;51.612;7.510;2023-03-01T11:07:51;19.70;1.00
1592;DHT22;789;51.612;7.510;2023-03-01T11:10:21;19.80;1.00
1592;DHT22;789;51.612;7.510;2023-03-01T11:12:49;19.80;1.00
1592;DHT22;789;51.612;7.510;2023-03-01T11:15:25;19.90;1.00
1592;DHT22;789;51.612;7.510;2023-03-01T11:17:53;20.80;1.00
1592;DHT22;789;51.612;7.510;2023-03-01T11:20:26;21.70;1.00
1592;DHT22;789;51.612;7.510;2023-03-01T11:22:54;21.80;1.00
1592;DHT22;789;51.612;7.510;2023-03-01T11:25:24;21.20;1.00
1592;DHT22;789;51.612;7.510;2023-03-01T11:27:53;20.80;1.00
1592;DHT22;789;51.612;7.510;2023-03-01T11:30:23;20.80;1.00
1592;DHT22;789;51.612;7.510;2023-03-01T11:32:56;21.00;1.00
1592;DHT22;789;51.612;7.510;2023-03-01T11:35:28;20.70;1.00
1592;DHT22;789;51.612;7.510;2023-03-01T11:38:04;19.80;1.00
1592;DHT22;789;51.612;7.510;2023-03-01T11:40:37;19.60;1.00
1592;DHT22;789;51.612;7.510;2023-03-01T11:43:21;19.40;1.00
1592;DHT22;789;51.612;7.510;2023-03-01T11:46:35;19.30;1.00
1592;DHT22;789;51.612;7.510;2023-03-01T11:49:22;19.30;1.00
1592;DHT22;789;51.612;7.510;2023-03-01T11:51:59;20.10;1.00
1592;DHT22;789;51.612;7.510;2023-03-01T11:54:37;19.60;1.00
1592;DHT22;789;51.612;7.510;2023-03-01T11:57:14;19.20;1.00
1592;DHT22;789;51.612;7.510;2023-03-01T12:00:03;19.60;1.00
1592;DHT22;789;51.612;7.510;2023-03-01T12:09:03;19.80;1.00
1592;DHT22;789;51.612;7.510;2023-03-01T12:11:41;20.10;1.00
1592;DHT22;789;51.612;7.510;2023-03-01T12:14:23;19.90;1.00
1592;DHT22;789;51.612;7.510;2023-03-01T12:17:07;20.20;1.00
1592;DHT22;789;51.612;7.510;2023-03-01T12:19:51;20.30;1.00
1592;DHT22;789;51.612;7.510;2023-03-01T12:22:30;20.40;1.00
1592;DHT22;789;51.612;7.510;2023-03-01T12:25:25;20.10;1.00
1592;DHT22;789;51.612;7.510;2023-03-01T12:28:19;20.10;1.00
1592;DHT22;789;51.612;7.510;2023-03-01T12:31:07;19.60;1.00
1592;DHT22;789;51.612;7.510;2023-03-01T12:33:43;19.40;1.00
1592;DHT22;789;51.612;7.510;2023-03-01T12:36:31;18.80;1.00
1592;DHT22;789;51.612;7.510;2023-03-01T12:39:08;18.10;1.00
1592;DHT22;789;51.612;7.510;2023-03-01T12:41:48;17.60;1.00
1592;DHT22;789;51.612;7.510;2023-03-01T12:44:35;16.90;1.00
1592;DHT22;789;51.612;7.510;2023-03-01T12:47:17;16.10;1.00
1592;DHT22;789;51.612;7.510;2023-03-01T12:49:49;15.20;1.00
1592;DHT22;789;51.612;7.510;2023-03-01T12:52:21;14.20;1.00
1592;DHT22;789;51.612;7.510;2023-03-01T12:54:51;13.10;1.00
1592;DHT22;789;51.612;7.510;2023-03-01T12:57:22;12.20;1.00
1592;DHT22;789;51.612;7.510;2023-03-01T13:00:02;11.50;1.00
1592;DHT22;789;51.612;7.510;2023-03-01T13:02:40;11.00;1.00
1592;DHT22;789;51.612;7.510;2023-03-01T13:05:23;10.50;1.00
1592;DHT22;789;51.612;7.510;2023-03-01T13:07:58;10.20;1.00
1592;DHT22;789;51.612;7.510;2023-03-01T13:10:31;9.80;1.00
1592;DHT22;789;51.612;7.510;2023-03-01T13:13:08;9.60;1.00
1592;DHT22;789;51.612;7.510;2023-03-01T13:15:38;9.40;1.00
1592;DHT22;789;51.612;7.510;2023-03-01T13:18:29;9.30;1.00
1592;DHT22;789;51.612;7.510;2023-03-01T13:20:58;9.20;1.00
1592;DHT22;789;51.612;7.510;2023-03-01T13:23:28;9.10;1.00
1592;DHT22;789;51.612;7.510;2023-03-01T13:26:20;9.00;1.00
1592;DHT22;789;51.612;7.510;2023-03-01T13:28:55;8.80;1.00
1592;DHT22;789;51.612;7.510;2023-03-01T13:31:59;8.80;1.00
1592;DHT22;789;51.612;7.510;2023-03-01T13:37:33;8.60;1.00
1592;DHT22;789;51.612;7.510;2023-03-01T13:43:32;8.40;1.00
1592;DHT22;789;51.612;7.510;2023-03-01T13:46:02;8.30;1.00
1592;DHT22;789;51.612;7.510;2023-03-01T13:48:34;8.20;1.00
1592;DHT22;789;51.612;7.510;2023-03-01T13:51:03;8.10;1.00
1592;DHT22;789;51.612;7.510;2023-03-01T13:53:34;8.10;1.00
1592;DHT22;789;51.612;7.510;2023-03-01T13:56:07;8.00;1.00
1592;DHT22;789;51.612;7.510;2023-03-01T13:58:46;8.00;1.00
1592;DHT22;789;51.612;7.510;2023-03-01T14:01:22;7.90;1.00
1592;DHT22;789;51.612;7.510;2023-03-01T14:03:49;7.90;1.00
1592;DHT22;789;51.612;7.510;2023-03-01T14:06:20;7.90;1.00
1592;DHT22;789;51.612;7.510;2023-03-01T14:08:49;7.90;1.00
1592;DHT22;789;51.612;7.510;2023-03-01T14:11:49;7.90;1.00
1592;DHT22;789;51.612;7.510;2023-03-01T14:17:25;7.90;1.00
1592;DHT22;789;51.612;7.510;2023-03-01T14:19:55;8.00;1.00
1592;DHT22;789;51.612;7.510;2023-03-01T14:22:26;8.00;1.00
1592;DHT22;789;51.612;7.510;2023-03-01T14:24:56;8.00;1.00
1592;DHT22;789;51.612;7.510;2023-03-01T14:27:26;8.00;1.00
1592;DHT22;789;51.612;7.510;2023-03-01T14:29:55;8.00;1.00
1592;DHT22;789;51.612;7.510;2023-03-01T14:32:24;8.00;1.00
1592;DHT22;789;51.612;7.510;2023-03-01T14:34:51;8.00;1.00
1592;DHT22;789;51.612;7.510;2023-03-01T14:37:21;8.00;1.00
1592;DHT22;789;51.612;7.510;2023-03-01T14:39:49;8.00;1.00
1592;DHT22;789;51.612;7.510;2023-03-01T14:42:16;7.90;1.00
1592;DHT22;789;51.612;7.510;2023-03-01T14:44:46;7.90;1.00
1592;DHT22;789;51.612;7.510;2023-03-01T14:47:15;7.90;1.00
1592;DHT22;789;51.612;7.510;2023-03-01T14:49:44;7.90;1.00
1592;DHT22;789;51.612;7.510;2023-03-01T14:52:19;7.90;1.00
1592;DHT22;789;51.612;7.510;2023-03-01T14:54:50;7.90;1.00
1592;DHT22;789;51.612;7.510;2023-03-01T14:57:20;7.90;1.00
1592;DHT22;789;51.612;7.510;2023-03-01T14:59:48;7.90;1.00
1592;DHT22;789;51.612;7.510;2023-03-01T15:02:21;7.90;1.00
1592;DHT22;789;51.612;7.510;2023-03-01T15:04:50;7.90;1.00
1592;DHT22;789;51.612;7.510;2023-03-01T15:07:18;7.90;1.00
1592;DHT22;789;51.612;7.510;2023-03-01T15:09:45;7.90;1.00
1592;DHT22;789;51.612;7.510;2023-03-01T15:12:36;7.90;1.00
1592;DHT22;789;51.612;7.510;2023-03-01T15:15:21;7.90;1.00
1592;DHT22;789;51.612;7.510;2023-03-01T15:17:52;7.90;1.00
1592;DHT22;789;51.612;7.510;2023-03-01T15:20:23;7.90;1.00
1592;DHT22;789;51.612;7.510;2023-03-01T15:22:51;7.80;1.00
1592;DHT22;789;51.612;7.510;2023-03-01T15:25:20;7.70;1.00
1592;DHT22;789;51.612;7.510;2023-03-01T15:27:51;7.70;1.00
1592;DHT22;789;51.612;7.510;2023-03-01T15:30:21;7.70;1.00
1592;DHT22;789;51.612;7.510;2023-03-01T15:32:48;7.70;1.00
1592;DHT22;789;51.612;7.510;2023-03-01T15:35:33;7.70;1.00
1592;DHT22;789;51.612;7.510;2023-03-01T15:38:22;7.70;1.00
1592;DHT22;789;51.612;7.510;2023-03-01T15:40:50;7.70;1.00
1592;DHT22;789;51.612;7.510;2023-03-01T15:43:43;7.70;1.00
1592;DHT22;789;51.612;7.510;2023-03-01T15:46:23;7.70;1.00
1592;DHT22;789;51.612;7.510;2023-03-01T15:48:52;7.70;1.00
1592;DHT22;789;51.612;7.510;2023-03-01T15:51:27;7.70;1.00
1592;DHT22;789;51.612;7.510;2023-03-01T15:53:55;7.70;1.00
1592;DHT22;789;51.612;7.510;2023-03-01T15:56:23;7.70;1.00
1592;DHT22;789;51.612;7.510;2023-03-01T15:58:51;7.60;1.00
1592;DHT22;789;51.612;7.510;2023-03-01T16:01:18;7.60;1.00
1592;DHT22;789;51.612;7.510;2023-03-01T16:03:45;7.60;1.00
1592;DHT22;789;51.612;7.510;2023-03-01T16:06:12;7.60;1.00
1592;DHT22;789;51.612;7.510;2023-03-01T16:08:39;7.60;1.00
1592;DHT22;789;51.612;7.510;2023-03-01T16:11:13;7.60;1.00
1592;DHT22;789;51.612;7.510;2023-03-01T16:13:41;7.60;1.00
1592;DHT22;789;51.612;7.510;2023-03-01T16:16:10;7.60;1.00
1592;DHT22;789;51.612;7.510;2023-03-01T16:18:40;7.60;1.00
1592;DHT22;789;51.612;7.510;2023-03-01T16:21:12;7.60;1.00
1592;DHT22;789;51.612;7.510;2023-03-01T16:23:38;7.50;1.00
1592;DHT22;789;51.612;7.510;2023-03-01T16:26:05;7.50;1.00
1592;DHT22;789;51.612;7.510;2023-03-01T16:28:32;7.60;1.00
1592;DHT22;789;51.612;7.510;2023-03-01T16:30:59;7.60;1.00
1592;DHT22;789;51.612;7.510;2023-03-01T16:33:28;7.50;1.00
1592;DHT22;789;51.612;7.510;2023-03-01T16:35:54;7.50;1.00
1592;DHT22;789;51.612;7.510;2023-03-01T16:38:21;7.50;1.00
1592;DHT22;789;51.612;7.510;2023-03-01T16:40:49;7.40;1.00
1592;DHT22;789;51.612;7.510;2023-03-01T16:43:16;7.40;1.00
1592;DHT22;789;51.612;7.510;2023-03-01T16:45:43;7.40;1.00
1592;DHT22;789;51.612;7.510;2023-03-01T16:48:12;7.40;1.00
1592;DHT22;789;51.612;7.510;2023-03-01T16:50:40;7.40;1.00
1592;DHT22;789;51.612;7.510;2023-03-01T16:53:06;7.30;1.00
1592;DHT22;789;51.612;7.510;2023-03-01T16:55:33;7.30;1.00
1592;DHT22;789;51.612;7.510;2023-03-01T16:58:00;7.30;1.00
1592;DHT22;789;51.612;7.510;2023-03-01T17:00:27;7.20;1.00
1592;DHT22;789;51.612;7.510;2023-03-01T17:02:54;7.20;1.00
1592;DHT22;789;51.612;7.510;2023-03-01T17:05:21;7.20;1.00
1592;DHT22;789;51.612;7.510;2023-03-01T17:07:50;7.10;1.00
1592;DHT22;789;51.612;7.510;2023-03-01T17:10:20;7.10;1.00
1592;DHT22;789;51.612;7.510;2023-03-01T17:12:47;7.10;1.00
1592;DHT22;789;51.612;7.510;2023-03-01T17:15:14;7.00;1.00
1592;DHT22;789;51.612;7.510;2023-03-01T17:17:41;7.00;1.00
1592;DHT22;789;51.612;7.510;2023-03-01T17:20:09;7.00;1.00
1592;DHT22;789;51.612;7.510;2023-03-01T17:22:36;7.00;1.00